Berit — ZDHX2 — position and weather

sailwx.info

Track history (hours):
 
Tides and Currents Weather Stations Pressure Air Temp Water Temp Dewpoint Dewpoint Depression Visibility Wind Speed Wind Dir Waves Ship Positions

Berit

Last reported at 2016-May-31 15:33 UTC. Time now 2016-May-31 21:54 UTC.
Position N 62°29' W 000°34'.

Length 83 m; draft 3.4 m.

Type: Cargo ship. MMSI: 236386000.

Date/timePositionNaut miles runAvg speedWind from/ knotsBaromVisibWave heightAir tempDewpointWater temp
2016-May-31 15:33N 62°29' W 000°34'9 9.3
2016-May-31 14:33N 62°34' W 000°50'10 9.4
2016-May-31 13:32N 62°40' W 001°07'14 9.9
2016-May-31 12:05N 62°47' W 001°34'5 9.9
2016-May-31 11:32N 62°50' W 001°44'14 9.8
2016-May-31 10:05N 62°58' W 002°10'910.4
2016-May-31 09:12N 63°03' W 002°27'  
2016-May-25 01:21N 59°05' E 004°28'6 7.5
2016-May-25 00:34N 59°01' E 004°36'8 8.0
2016-May-24 23:33N 58°55' E 004°47'8 7.9
2016-May-24 22:34N 58°50' E 004°58'8 8.2
2016-May-24 21:33N 58°44' E 005°09'8 8.2
2016-May-24 20:33N 58°38' E 005°20'9 8.5
2016-May-24 19:33N 58°32' E 005°32'9 8.9
2016-May-24 18:33N 58°26' E 005°44'9 9.0
2016-May-24 17:33N 58°20' E 005°57'9 8.8
2016-May-24 16:33N 58°14' E 006°09'10 9.6
2016-May-24 15:33N 58°07' E 006°22'9 9.0
2016-May-24 14:34N 58°01' E 006°35'10 9.8
2016-May-24 13:33N 57°58' E 006°52'10 9.7
2016-May-24 12:34N 57°56' E 007°10'3510.6
2016-May-24 09:16N 57°60' E 008°15'811.0
2016-May-24 08:34N 58°05' E 008°26'1110.8
2016-May-24 07:34N 58°12' E 008°42'3210.8
2016-May-24 04:34N 58°34' E 009°27'1111.1
2016-May-24 03:34N 58°41' E 009°44'1111.0
2016-May-24 02:33N 58°47' E 010°01'1111.1
2016-May-24 01:33N 58°54' E 010°18'1110.9
2016-May-24 00:34N 59°01' E 010°34'10 9.7
2016-May-23 23:34N 59°11' E 010°38'1010.1
2016-May-23 22:33N 59°20' E 010°35'1010.2
2016-May-23 21:34N 59°31' E 010°35'10 9.6
2016-May-23 20:33N 59°40' E 010°37'10 9.8
2016-May-23 19:33N 59°50' E 010°36'3 0.1
2016-May-22 10:34N 59°52' E 010°39'1010.1
2016-May-22 09:33N 59°42' E 010°36'1010.4
2016-May-22 08:34N 59°32' E 010°36'1110.6
2016-May-22 07:34N 59°21' E 010°36'1111.3
2016-May-22 06:34N 59°10' E 010°39'9 9.3
2016-May-22 05:33N 59°01' E 010°36'8 8.4
2016-May-22 04:34N 58°53' E 010°39'1111.2
2016-May-22 03:34N 58°42' E 010°43'1110.9
2016-May-22 02:33N 58°31' E 010°47'1111.1
2016-May-22 01:34N 58°20' E 010°49'1110.7
2016-May-22 00:34N 58°10' E 010°55'1110.5
2016-May-21 23:33N 57°59' E 010°54'1111.2
2016-May-21 22:33N 57°48' E 010°49'9 3.9
2016-May-21 20:08N 57°42' E 010°37'6 9.9
2016-May-21 19:33N 57°41' E 010°47'10 9.9
2016-May-21 18:33N 57°38' E 011°05'1010.3
2016-May-21 17:33N 57°31' E 011°19'1010.1
2016-May-21 16:33N 57°23' E 011°29'1110.7
2016-May-21 15:33N 57°13' E 011°36'  
Track history (hours):
 
Tides and Currents Weather Stations Pressure Air Temp Water Temp Dewpoint Dewpoint Depression Visibility Wind Speed Wind Dir Waves Ship Positions

Berit

Last reported at 2016-May-31 15:33 UTC. Time now 2016-May-31 21:54 UTC.
Position N 62°29' W 000°34'.

Length 83 m; draft 3.4 m.

Type: Cargo ship. MMSI: 236386000.

Date/timePositionNaut miles runAvg speedWind from/ knotsBaromVisibWave heightAir tempDewpointWater temp
2016-May-31 15:33N 62°29' W 000°34'9 9.3
2016-May-31 14:33N 62°34' W 000°50'10 9.4
2016-May-31 13:32N 62°40' W 001°07'14 9.9
2016-May-31 12:05N 62°47' W 001°34'5 9.9
2016-May-31 11:32N 62°50' W 001°44'14 9.8
2016-May-31 10:05N 62°58' W 002°10'910.4
2016-May-31 09:12N 63°03' W 002°27'  
2016-May-25 01:21N 59°05' E 004°28'6 7.5
2016-May-25 00:34N 59°01' E 004°36'8 8.0
2016-May-24 23:33N 58°55' E 004°47'8 7.9
2016-May-24 22:34N 58°50' E 004°58'8 8.2
2016-May-24 21:33N 58°44' E 005°09'8 8.2
2016-May-24 20:33N 58°38' E 005°20'9 8.5
2016-May-24 19:33N 58°32' E 005°32'9 8.9
2016-May-24 18:33N 58°26' E 005°44'9 9.0
2016-May-24 17:33N 58°20' E 005°57'9 8.8
2016-May-24 16:33N 58°14' E 006°09'10 9.6
2016-May-24 15:33N 58°07' E 006°22'9 9.0
2016-May-24 14:34N 58°01' E 006°35'10 9.8
2016-May-24 13:33N 57°58' E 006°52'10 9.7
2016-May-24 12:34N 57°56' E 007°10'3510.6
2016-May-24 09:16N 57°60' E 008°15'811.0
2016-May-24 08:34N 58°05' E 008°26'1110.8
2016-May-24 07:34N 58°12' E 008°42'3210.8
2016-May-24 04:34N 58°34' E 009°27'1111.1
2016-May-24 03:34N 58°41' E 009°44'1111.0
2016-May-24 02:33N 58°47' E 010°01'1111.1
2016-May-24 01:33N 58°54' E 010°18'1110.9
2016-May-24 00:34N 59°01' E 010°34'10 9.7
2016-May-23 23:34N 59°11' E 010°38'1010.1
2016-May-23 22:33N 59°20' E 010°35'1010.2
2016-May-23 21:34N 59°31' E 010°35'10 9.6
2016-May-23 20:33N 59°40' E 010°37'10 9.8
2016-May-23 19:33N 59°50' E 010°36'3 0.1
2016-May-22 10:34N 59°52' E 010°39'1010.1
2016-May-22 09:33N 59°42' E 010°36'1010.4
2016-May-22 08:34N 59°32' E 010°36'1110.6
2016-May-22 07:34N 59°21' E 010°36'1111.3
2016-May-22 06:34N 59°10' E 010°39'9 9.3
2016-May-22 05:33N 59°01' E 010°36'8 8.4
2016-May-22 04:34N 58°53' E 010°39'1111.2
2016-May-22 03:34N 58°42' E 010°43'1110.9
2016-May-22 02:33N 58°31' E 010°47'1111.1
2016-May-22 01:34N 58°20' E 010°49'1110.7
2016-May-22 00:34N 58°10' E 010°55'1110.5
2016-May-21 23:33N 57°59' E 010°54'1111.2
2016-May-21 22:33N 57°48' E 010°49'9 3.9
2016-May-21 20:08N 57°42' E 010°37'6 9.9
2016-May-21 19:33N 57°41' E 010°47'10 9.9
2016-May-21 18:33N 57°38' E 011°05'1010.3
2016-May-21 17:33N 57°31' E 011°19'1010.1
2016-May-21 16:33N 57°23' E 011°29'1110.7
2016-May-21 15:33N 57°13' E 011°36'  

Dump ship's entire track history